Time;durP1;ratioP1;P1;durP2;ratioP2;P2;SDS_P1;SDS_P2;PMS_P1;PMS_P2;Temp;Humidity;BMP_temperature;BMP_pressure;BME280_temperature;BME280_humidity;BME280_pressure;Samples;Min_cycle;Max_cycle;Signal;HPM_P1;HPM_P2
2021/09/30 00:00:07;;;;;;;3.80;1.90;;;10.40;99.90;;;;;;4997143;28;20502;-71
2021/09/30 00:02:33;;;;;;;3.57;2.10;;;10.50;99.90;;;;;;4996716;28;20773;-70
2021/09/30 00:04:59;;;;;;;2.67;2.47;;;10.40;99.90;;;;;;4996627;28;20812;-70
2021/09/30 00:07:25;;;;;;;2.70;2.40;;;10.40;99.90;;;;;;4996196;28;20469;-71
2021/09/30 00:09:50;;;;;;;4.93;2.83;;;10.40;99.90;;;;;;4996712;28;20466;-70
2021/09/30 00:12:21;;;;;;;2.80;2.57;;;10.40;99.90;;;;;;4998257;28;20276;-70
2021/09/30 00:14:53;;;;;;;2.90;2.60;;;10.40;99.90;;;;;;4995546;28;20259;-70
2021/09/30 00:41:45;;;;;;;4.47;2.63;;;10.50;99.90;;;;;;4996862;28;20191;-70
2021/09/30 00:49:37;;;;;;;3.37;2.80;;;10.40;99.90;;;;;;5002217;28;20470;-70
2021/09/30 00:52:11;;;;;;;3.13;2.70;;;10.30;99.90;;;;;;5001806;28;20461;-70
2021/09/30 02:24:01;;;;;;;4.57;2.70;;;10.40;99.90;;;;;;4968384;29;20418;-71
2021/09/30 02:40:04;;;;;;;6.80;2.80;;;10.40;99.90;;;;;;4994965;28;20461;-70
2021/09/30 02:59:34;;;;;;;3.63;2.57;;;10.30;99.90;;;;;;4977703;28;20427;-72
2021/09/30 03:02:02;;;;;;;3.73;2.83;;;10.30;99.90;;;;;;4974669;28;20400;-71
2021/09/30 03:04:29;;;;;;;5.33;2.50;;;10.30;99.90;;;;;;4987415;28;20407;-71
2021/09/30 03:06:56;;;;;;;3.63;2.87;;;10.30;99.90;;;;;;4994089;28;20411;-70
2021/09/30 03:09:22;;;;;;;4.97;3.03;;;10.30;99.90;;;;;;4997318;28;20980;-70
2021/09/30 03:11:52;;;;;;;5.70;2.70;;;10.30;99.90;;;;;;4998186;28;20418;-70
2021/09/30 03:14:21;;;;;;;3.83;2.60;;;10.40;99.90;;;;;;4998064;28;20469;-71
2021/09/30 03:16:51;;;;;;;3.13;2.77;;;10.40;99.90;;;;;;4998138;28;20489;-71
2021/09/30 03:24:27;;;;;;;5.87;2.90;;;10.30;99.90;;;;;;4984857;28;20507;-71
2021/09/30 03:26:53;;;;;;;6.40;3.07;;;10.30;99.90;;;;;;4997721;28;20419;-70
2021/09/30 03:29:19;;;;;;;4.77;3.50;;;10.40;99.90;;;;;;4998038;28;20536;-69
2021/09/30 03:31:47;;;;;;;4.23;2.90;;;10.30;99.90;;;;;;4997817;28;20419;-69
2021/09/30 03:34:13;;;;;;;4.90;3.30;;;10.30;99.90;;;;;;4997586;28;20411;-69
2021/09/30 03:36:39;;;;;;;6.23;3.10;;;10.20;99.90;;;;;;4997041;28;20419;-69
2021/09/30 03:39:04;;;;;;;5.20;2.93;;;10.20;99.90;;;;;;4998355;28;20438;-70
2021/09/30 03:41:30;;;;;;;3.00;2.60;;;10.20;99.90;;;;;;4997422;28;20183;-69
2021/09/30 03:43:56;;;;;;;4.83;2.80;;;10.10;99.90;;;;;;4997419;28;20183;-69
2021/09/30 03:46:21;;;;;;;6.15;3.30;;;10.10;99.90;;;;;;4996885;28;20959;-71
2021/09/30 03:48:54;;;;;;;7.27;3.60;;;10.10;99.90;;;;;;4997472;28;20262;-70
2021/09/30 03:51:33;;;;;;;3.43;2.60;;;10.10;99.90;;;;;;4996450;28;20167;-70
2021/09/30 03:54:12;;;;;;;5.72;3.20;;;10.10;99.90;;;;;;4997179;28;20409;-71
2021/09/30 03:59:27;;;;;;;6.60;3.40;;;10.20;99.90;;;;;;4969469;28;20484;-72
2021/09/30 04:01:57;;;;;;;4.30;2.80;;;10.10;99.90;;;;;;4996734;28;20505;-71
2021/09/30 04:04:26;;;;;;;3.27;2.73;;;10.10;99.90;;;;;;4997552;28;20599;-71
2021/09/30 04:06:56;;;;;;;5.83;2.90;;;10.10;99.90;;;;;;4996626;28;20450;-71
2021/09/30 04:09:27;;;;;;;5.77;2.97;;;10.00;99.90;;;;;;4995769;28;20470;-71
2021/09/30 04:12:04;;;;;;;7.23;3.00;;;10.10;99.90;;;;;;4997828;28;20767;-71
2021/09/30 04:14:30;;;;;;;4.03;2.60;;;10.00;99.90;;;;;;4997812;28;20392;-71
2021/09/30 04:16:56;;;;;;;4.03;3.60;;;10.00;99.90;;;;;;4990413;28;20454;-71
2021/09/30 04:19:22;;;;;;;4.77;3.33;;;10.00;99.90;;;;;;4996547;28;20199;-71
2021/09/30 04:21:50;;;;;;;3.93;2.83;;;9.90;99.90;;;;;;4998857;28;20469;-70
2021/09/30 04:24:16;;;;;;;3.57;3.07;;;9.90;99.90;;;;;;4999138;28;20513;-71
2021/09/30 04:26:43;;;;;;;5.80;3.97;;;9.90;99.90;;;;;;4989730;28;20486;-71
2021/09/30 04:29:09;;;;;;;6.40;3.83;;;10.00;99.90;;;;;;4989721;28;20490;-71
2021/09/30 04:31:34;;;;;;;7.93;3.70;;;9.90;99.90;;;;;;5000747;28;20427;-71
2021/09/30 04:34:01;;;;;;;6.60;3.53;;;9.90;99.90;;;;;;5006452;28;20196;-71
2021/09/30 04:36:27;;;;;;;4.83;3.23;;;9.90;99.90;;;;;;5004356;28;20192;-71
2021/09/30 04:38:52;;;;;;;5.20;3.30;;;9.80;99.90;;;;;;4999790;28;20838;-71
2021/09/30 04:41:20;;;;;;;4.43;3.40;;;9.80;99.90;;;;;;5016207;28;20503;-71
2021/09/30 04:43:46;;;;;;;8.90;4.67;;;9.80;99.90;;;;;;5006422;28;20263;-69
2021/09/30 04:46:13;;;;;;;4.53;2.93;;;9.70;99.90;;;;;;5013014;28;20453;-70
2021/09/30 04:48:39;;;;;;;3.90;3.30;;;9.70;99.90;;;;;;5013832;28;20215;-69
2021/09/30 04:51:05;;;;;;;6.90;3.60;;;9.70;99.90;;;;;;5002040;28;20466;-69
2021/09/30 04:53:30;;;;;;;5.60;3.20;;;9.80;99.90;;;;;;4996282;28;20489;-70
2021/09/30 04:55:56;;;;;;;4.23;3.80;;;9.80;99.90;;;;;;4994543;28;20459;-70
2021/09/30 04:58:21;;;;;;;5.40;3.23;;;9.70;99.90;;;;;;5014230;28;20676;-69
2021/09/30 05:00:47;;;;;;;6.37;3.17;;;9.70;99.90;;;;;;5008411;28;20215;-69
2021/09/30 05:03:13;;;;;;;6.10;3.43;;;9.80;99.90;;;;;;4994853;28;20219;-70
2021/09/30 05:05:38;;;;;;;5.00;3.20;;;9.80;99.90;;;;;;4994260;28;20211;-69
2021/09/30 05:08:04;;;;;;;6.00;3.50;;;9.80;99.90;;;;;;4993893;28;20234;-69
2021/09/30 05:10:34;;;;;;;8.53;3.60;;;9.70;99.90;;;;;;4994170;28;20286;-68
2021/09/30 05:13:05;;;;;;;4.43;3.60;;;9.70;99.90;;;;;;4993265;28;20454;-70
2021/09/30 05:15:32;;;;;;;9.40;4.60;;;9.70;99.90;;;;;;4995907;28;20442;-71
2021/09/30 05:17:58;;;;;;;6.40;3.40;;;9.70;99.90;;;;;;4995459;28;20465;-70
2021/09/30 05:20:24;;;;;;;4.83;3.40;;;9.70;99.90;;;;;;4996075;28;20493;-70
2021/09/30 05:22:49;;;;;;;6.00;3.90;;;9.70;99.90;;;;;;4994332;28;20454;-69
2021/09/30 05:25:15;;;;;;;7.50;3.20;;;9.70;99.90;;;;;;5000720;28;20207;-71
2021/09/30 05:27:41;;;;;;;6.40;3.70;;;9.80;99.90;;;;;;5011077;28;20230;-69
2021/09/30 05:30:07;;;;;;;4.00;3.40;;;9.70;99.90;;;;;;5010087;28;20234;-70
2021/09/30 05:32:32;;;;;;;7.23;3.90;;;9.70;99.90;;;;;;5013701;28;20209;-70
2021/09/30 05:34:58;;;;;;;5.57;3.27;;;9.70;99.90;;;;;;5001522;28;20462;-69
2021/09/30 05:37:23;;;;;;;4.97;3.50;;;9.70;99.90;;;;;;4994995;28;20307;-72
2021/09/30 05:39:49;;;;;;;7.60;4.30;;;9.80;99.90;;;;;;4995582;28;20239;-70
2021/09/30 05:42:15;;;;;;;4.23;3.17;;;9.70;99.90;;;;;;4994684;28;20269;-69
2021/09/30 05:44:41;;;;;;;6.20;3.90;;;9.70;99.90;;;;;;4999307;28;20199;-70
2021/09/30 05:47:07;;;;;;;5.77;3.40;;;9.70;99.90;;;;;;5010197;28;20470;-71
2021/09/30 05:49:33;;;;;;;3.77;3.37;;;9.70;99.90;;;;;;5003085;28;20219;-70
2021/09/30 05:51:58;;;;;;;6.73;3.60;;;9.80;99.90;;;;;;4996374;28;20442;-69
2021/09/30 05:54:24;;;;;;;8.27;3.57;;;9.90;99.90;;;;;;5002019;28;20999;-68
2021/09/30 05:56:50;;;;;;;5.00;3.80;;;9.80;99.90;;;;;;5011890;28;20242;-70
2021/09/30 05:59:20;;;;;;;3.73;2.93;;;9.90;99.90;;;;;;4994753;28;20215;-70
2021/09/30 06:10:33;;;;;;;4.07;3.37;;;9.80;99.90;;;;;;4998378;28;20585;-69
2021/09/30 06:12:38;;;;;;;7.83;3.40;;;9.80;99.90;;;;;;4992227;28;20508;-69
2021/09/30 06:15:12;;;;;;;5.23;3.03;;;9.80;99.90;;;;;;4997737;28;20427;-69
2021/09/30 06:17:39;;;;;;;7.10;3.50;;;9.80;99.90;;;;;;4994853;28;20811;-70
2021/09/30 06:20:05;;;;;;;6.73;3.17;;;9.80;99.90;;;;;;4992266;28;20462;-71
2021/09/30 06:22:31;;;;;;;6.70;4.00;;;9.90;99.90;;;;;;4991297;28;20427;-70
2021/09/30 06:24:57;;;;;;;5.70;3.10;;;9.90;99.90;;;;;;4995901;28;20959;-70
2021/09/30 06:27:22;;;;;;;5.43;3.67;;;9.90;99.90;;;;;;4996541;28;20736;-70
2021/09/30 06:29:48;;;;;;;4.23;3.30;;;10.00;99.90;;;;;;4993098;28;20315;-70
2021/09/30 06:32:13;;;;;;;9.47;3.57;;;10.00;99.90;;;;;;5012250;28;20211;-70
2021/09/30 06:34:41;;;;;;;7.97;3.40;;;10.00;99.90;;;;;;5001203;28;20447;-70
2021/09/30 06:37:08;;;;;;;7.80;4.20;;;10.00;99.90;;;;;;4991607;28;20286;-70
2021/09/30 06:39:35;;;;;;;7.77;4.27;;;10.10;99.90;;;;;;4992601;28;20474;-70
2021/09/30 06:42:04;;;;;;;8.83;3.80;;;10.10;99.90;;;;;;4991383;28;20493;-69
2021/09/30 06:44:29;;;;;;;9.00;3.77;;;10.10;99.90;;;;;;4996277;28;20470;-69
2021/09/30 06:46:55;;;;;;;5.73;3.20;;;10.10;99.90;;;;;;4995883;28;20446;-70
2021/09/30 06:49:20;;;;;;;9.30;4.10;;;10.10;99.90;;;;;;4996372;28;20285;-70
2021/09/30 06:51:46;;;;;;;6.23;3.83;;;10.10;99.90;;;;;;4995782;28;20208;-70
2021/09/30 06:54:12;;;;;;;8.60;3.70;;;10.10;99.90;;;;;;4995221;28;20234;-70
2021/09/30 06:56:37;;;;;;;6.43;3.50;;;10.10;99.90;;;;;;4996544;28;20220;-69
2021/09/30 06:59:08;;;;;;;4.93;3.60;;;10.20;99.90;;;;;;4995597;28;20231;-70
2021/09/30 07:01:37;;;;;;;4.47;3.70;;;10.20;99.90;;;;;;4986731;28;20199;-70
2021/09/30 07:04:07;;;;;;;4.80;3.30;;;10.30;99.90;;;;;;4982872;28;20471;-70
2021/09/30 07:06:32;;;;;;;7.27;3.60;;;10.30;99.90;;;;;;4983167;28;20986;-70
2021/09/30 07:08:58;;;;;;;6.30;3.80;;;10.40;99.90;;;;;;4990483;28;20482;-69
2021/09/30 07:11:24;;;;;;;5.60;4.23;;;10.40;99.90;;;;;;4991696;28;20455;-69
2021/09/30 07:13:49;;;;;;;6.47;2.90;;;10.40;99.90;;;;;;4993657;28;20204;-71
2021/09/30 07:16:15;;;;;;;7.10;3.50;;;10.50;99.90;;;;;;4976688;28;20212;-70
2021/09/30 07:18:40;;;;;;;5.87;3.27;;;10.50;99.90;;;;;;4982225;28;20215;-70
2021/09/30 07:21:06;;;;;;;6.53;3.50;;;10.50;99.90;;;;;;4988468;28;20287;-69
2021/09/30 07:23:31;;;;;;;5.27;3.73;;;10.60;99.90;;;;;;4986608;28;20199;-70
2021/09/30 07:25:58;;;;;;;6.70;3.40;;;10.60;99.90;;;;;;4999245;28;20215;-69
2021/09/30 07:28:26;;;;;;;5.20;3.17;;;10.50;99.90;;;;;;4984209;28;20626;-70
2021/09/30 07:30:51;;;;;;;11.77;3.60;;;10.60;99.90;;;;;;4991160;28;20474;-70
2021/09/30 07:33:19;;;;;;;10.63;4.80;;;10.60;99.90;;;;;;4997123;28;20427;-69
2021/09/30 07:35:45;;;;;;;8.00;3.77;;;10.70;99.90;;;;;;4997564;28;20638;-70
2021/09/30 07:38:11;;;;;;;5.33;3.00;;;10.70;99.90;;;;;;4997791;28;20539;-70
2021/09/30 07:40:36;;;;;;;3.70;2.33;;;10.80;99.90;;;;;;4994339;28;20188;-70
2021/09/30 07:43:02;;;;;;;6.87;3.73;;;11.00;99.90;;;;;;4985386;28;20239;-71
2021/09/30 07:45:27;;;;;;;6.10;3.17;;;11.10;99.90;;;;;;4985397;28;20198;-70
2021/09/30 07:47:53;;;;;;;6.20;3.53;;;11.20;99.90;;;;;;4990312;28;20425;-68
2021/09/30 07:50:19;;;;;;;4.23;2.40;;;11.30;99.90;;;;;;4988574;28;20202;-69
2021/09/30 07:52:45;;;;;;;5.63;2.50;;;11.30;99.90;;;;;;5001949;28;20183;-69
2021/09/30 07:55:11;;;;;;;8.67;3.43;;;11.30;99.90;;;;;;4994846;28;20180;-72
2021/09/30 07:57:37;;;;;;;8.60;2.83;;;11.40;99.90;;;;;;4992726;28;20439;-68
2021/09/30 08:00:07;;;;;;;4.60;3.00;;;11.40;99.90;;;;;;4985616;28;20420;-69
2021/09/30 08:02:33;;;;;;;6.30;3.40;;;11.40;99.90;;;;;;4988878;28;20451;-70
2021/09/30 08:04:59;;;;;;;5.80;3.07;;;11.50;99.90;;;;;;4992526;28;20999;-70
2021/09/30 08:07:24;;;;;;;7.70;3.20;;;11.50;99.90;;;;;;4996393;28;20203;-69
2021/09/30 08:09:50;;;;;;;5.40;2.77;;;11.60;99.90;;;;;;5004494;28;20665;-69
2021/09/30 08:12:16;;;;;;;8.90;3.30;;;11.60;99.90;;;;;;4992902;28;20176;-68
2021/09/30 08:14:41;;;;;;;6.43;3.13;;;11.70;99.90;;;;;;4993568;28;20188;-70
2021/09/30 08:17:07;;;;;;;5.37;3.33;;;11.70;99.90;;;;;;4993498;28;20418;-69
2021/09/30 08:19:33;;;;;;;8.90;3.50;;;11.80;99.90;;;;;;4993718;28;20200;-70
2021/09/30 08:21:58;;;;;;;8.60;3.85;;;11.80;99.90;;;;;;4992449;28;20436;-70
2021/09/30 08:24:24;;;;;;;6.83;3.40;;;11.90;99.90;;;;;;4993135;28;20609;-71
2021/09/30 08:26:50;;;;;;;4.17;3.03;;;11.90;99.90;;;;;;4994521;28;20855;-70
2021/09/30 08:29:17;;;;;;;6.97;3.30;;;12.00;99.90;;;;;;4994341;28;20247;-71
2021/09/30 08:31:43;;;;;;;3.80;2.90;;;12.10;99.90;;;;;;4990545;28;20192;-70
2021/09/30 08:34:09;;;;;;;3.23;2.43;;;12.10;99.90;;;;;;4979079;28;20474;-69
2021/09/30 08:36:35;;;;;;;4.70;2.77;;;12.20;99.90;;;;;;4979635;28;20428;-71
2021/09/30 08:39:02;;;;;;;6.30;3.00;;;12.20;99.90;;;;;;4985077;28;20455;-74
2021/09/30 08:41:28;;;;;;;7.15;3.30;;;12.20;99.90;;;;;;4995395;28;20430;-71
2021/09/30 08:44:05;;;;;;;7.03;3.50;;;12.30;99.90;;;;;;4999780;28;20196;-70
2021/09/30 08:46:32;;;;;;;7.70;3.57;;;12.50;99.90;;;;;;4992976;28;20550;-70
2021/09/30 08:49:02;;;;;;;7.80;3.40;;;12.60;99.90;;;;;;4984350;28;20509;-71
2021/09/30 08:51:28;;;;;;;7.43;3.07;;;12.60;99.90;;;;;;4989041;28;20449;-72
2021/09/30 08:53:54;;;;;;;5.50;2.80;;;12.70;99.90;;;;;;4984640;28;20921;-69
2021/09/30 08:56:19;;;;;;;7.03;3.40;;;12.70;99.90;;;;;;4989740;28;20193;-70
2021/09/30 08:58:45;;;;;;;11.50;4.30;;;12.80;99.90;;;;;;4991391;28;20204;-68
2021/09/30 09:01:13;;;;;;;6.40;3.40;;;12.90;99.90;;;;;;4979938;28;20195;-69
2021/09/30 09:03:45;;;;;;;5.50;3.30;;;12.90;99.90;;;;;;4992543;28;20502;-70
2021/09/30 09:06:28;;;;;;;6.20;2.87;;;13.00;99.90;;;;;;4989835;28;20458;-71
2021/09/30 09:09:21;;;;;;;3.90;2.47;;;13.00;99.90;;;;;;4985163;28;21060;-69
2021/09/30 09:11:49;;;;;;;4.00;2.80;;;13.10;99.90;;;;;;4977113;28;20416;-69
2021/09/30 09:14:34;;;;;;;7.63;3.57;;;13.20;99.90;;;;;;4991980;28;20408;-70
2021/09/30 09:17:03;;;;;;;6.93;3.80;;;13.30;99.90;;;;;;4999904;28;20438;-71
2021/09/30 09:19:38;;;;;;;6.30;3.30;;;13.40;99.90;;;;;;5015340;28;20444;-69
2021/09/30 09:22:18;;;;;;;6.17;3.40;;;13.50;99.90;;;;;;5015525;28;20418;-70
2021/09/30 09:25:16;;;;;;;10.30;3.70;;;13.50;99.90;;;;;;5012336;28;20443;-70
2021/09/30 09:27:49;;;;;;;3.20;2.47;;;13.50;99.90;;;;;;4935779;29;20474;-71
2021/09/30 09:30:34;;;;;;;7.90;3.63;;;13.40;99.90;;;;;;4941154;29;20425;-69
2021/09/30 09:33:23;;;;;;;5.27;2.60;;;13.30;99.90;;;;;;4955353;29;20425;-69
2021/09/30 09:36:05;;;;;;;5.03;2.87;;;13.50;99.90;;;;;;4955200;29;20845;-69
2021/09/30 09:38:43;;;;;;;6.37;2.87;;;13.60;99.90;;;;;;4941393;29;20472;-69
2021/09/30 09:41:12;;;;;;;10.00;3.30;;;13.60;99.90;;;;;;4935403;29;20418;-70
2021/09/30 09:43:43;;;;;;;6.00;3.03;;;13.60;99.90;;;;;;4935786;29;20421;-69
2021/09/30 09:46:10;;;;;;;6.13;3.23;;;13.50;99.90;;;;;;4920246;29;20476;-70
2021/09/30 09:48:36;;;;;;;4.33;2.60;;;13.60;99.90;;;;;;4935393;29;20552;-69
2021/09/30 09:51:08;;;;;;;4.80;2.87;;;13.70;99.90;;;;;;4936435;29;20497;-70
2021/09/30 09:53:34;;;;;;;5.10;3.43;;;13.60;99.90;;;;;;4935727;29;20406;-69
2021/09/30 09:56:18;;;;;;;7.07;3.10;;;13.60;99.90;;;;;;4935342;29;20914;-70
2021/09/30 09:58:55;;;;;;;8.93;2.40;;;13.70;99.90;;;;;;4935502;29;20718;-70
2021/09/30 10:01:27;;;;;;;6.20;2.70;;;13.70;99.90;;;;;;4935879;29;20406;-70
2021/09/30 10:03:55;;;;;;;7.73;2.90;;;13.70;99.90;;;;;;4952146;28;20436;-69
2021/09/30 10:06:21;;;;;;;5.67;3.40;;;13.70;99.90;;;;;;4976098;28;20443;-70
2021/09/30 10:08:47;;;;;;;5.73;2.70;;;13.80;99.90;;;;;;4976067;28;20456;-69
2021/09/30 10:11:13;;;;;;;9.17;2.60;;;13.90;99.90;;;;;;4994482;28;20514;-70
2021/09/30 10:13:38;;;;;;;4.70;2.40;;;13.90;99.90;;;;;;4995257;28;20411;-70
2021/09/30 10:16:04;;;;;;;9.57;2.90;;;14.00;99.90;;;;;;4995291;28;20172;-70
2021/09/30 10:18:31;;;;;;;5.60;2.03;;;14.10;99.90;;;;;;4995072;28;20211;-70
2021/09/30 10:20:59;;;;;;;6.23;2.27;;;14.20;99.90;;;;;;4994448;28;20434;-70
2021/09/30 10:23:27;;;;;;;5.00;1.93;;;14.00;99.90;;;;;;4994572;28;20411;-70
2021/09/30 10:26:26;;;;;;;4.93;2.07;;;14.10;99.90;;;;;;4993152;28;20430;-70
2021/09/30 10:28:51;;;;;;;4.37;2.53;;;14.10;99.90;;;;;;4989016;28;20512;-70
2021/09/30 10:31:42;;;;;;;7.93;2.30;;;14.10;97.80;;;;;;4994329;28;20498;-70
2021/09/30 10:34:09;;;;;;;3.33;2.40;;;14.30;98.60;;;;;;4995084;28;20173;-70
2021/09/30 10:36:44;;;;;;;7.73;2.90;;;14.40;97.60;;;;;;4999197;28;20436;-68
2021/09/30 10:39:33;;;;;;;4.50;3.20;;;14.60;97.10;;;;;;4996722;28;20545;-69
2021/09/30 10:42:02;;;;;;;4.00;2.53;;;14.90;97.20;;;;;;4993956;28;20419;-70
2021/09/30 10:44:36;;;;;;;3.70;2.00;;;15.00;96.00;;;;;;4994710;28;20408;-69
2021/09/30 10:47:03;;;;;;;3.20;1.83;;;14.90;95.40;;;;;;4994581;28;20467;-70
2021/09/30 10:49:42;;;;;;;3.30;2.13;;;14.80;95.60;;;;;;4994749;28;20471;-71
2021/09/30 10:52:14;;;;;;;4.53;3.03;;;14.70;95.50;;;;;;4994348;28;20789;-71
2021/09/30 10:54:41;;;;;;;3.27;1.70;;;14.50;95.60;;;;;;4994527;28;20439;-70
2021/09/30 10:57:39;;;;;;;4.23;2.33;;;14.50;95.10;;;;;;4994271;28;20419;-72
2021/09/30 11:00:33;;;;;;;3.67;1.63;;;14.50;95.30;;;;;;4953782;28;20580;-72
2021/09/30 11:03:01;;;;;;;3.93;1.60;;;14.50;94.70;;;;;;4937078;29;20429;-70
2021/09/30 11:05:35;;;;;;;3.37;1.97;;;14.50;94.50;;;;;;4953185;29;20440;-72
2021/09/30 11:08:23;;;;;;;3.73;1.73;;;14.60;94.70;;;;;;4954327;29;20544;-70
2021/09/30 11:13:31;;;;;;;1.97;1.30;;;14.60;95.40;;;;;;4953504;28;20435;-68
2021/09/30 11:16:03;;;;;;;6.73;2.03;;;14.60;95.10;;;;;;4952728;29;20456;-69
2021/09/30 11:18:50;;;;;;;3.90;1.80;;;14.70;95.10;;;;;;4937664;29;20850;-70
2021/09/30 11:21:30;;;;;;;5.97;1.40;;;14.90;95.00;;;;;;4954071;29;20922;-69
2021/09/30 11:24:00;;;;;;;2.85;1.80;;;15.00;93.80;;;;;;4937364;29;20431;-70
2021/09/30 11:26:27;;;;;;;1.87;1.33;;;15.00;93.80;;;;;;4953847;29;20185;-69
2021/09/30 11:28:54;;;;;;;5.47;2.17;;;14.90;92.10;;;;;;4954605;28;20472;-69
2021/09/30 11:31:28;;;;;;;6.80;2.17;;;14.90;92.00;;;;;;4970747;28;20420;-69
2021/09/30 11:33:56;;;;;;;1.60;1.30;;;15.00;92.60;;;;;;4976941;28;20392;-69
2021/09/30 11:36:33;;;;;;;2.83;1.50;;;15.00;91.70;;;;;;4974034;28;20450;-69
2021/09/30 11:38:58;;;;;;;2.53;1.37;;;15.00;91.40;;;;;;4980030;28;20439;-70
2021/09/30 11:41:35;;;;;;;1.97;1.00;;;15.00;92.00;;;;;;4981486;28;20434;-69
2021/09/30 11:44:02;;;;;;;3.27;1.43;;;15.10;91.50;;;;;;4981283;28;20168;-70
2021/09/30 11:46:33;;;;;;;3.53;1.60;;;15.10;90.80;;;;;;4989344;28;20415;-70
2021/09/30 11:49:02;;;;;;;3.20;1.50;;;15.10;90.80;;;;;;4997588;28;20928;-69
2021/09/30 11:52:09;;;;;;;4.87;2.30;;;15.10;91.40;;;;;;4998458;28;20416;-69
2021/09/30 11:54:35;;;;;;;2.40;1.60;;;15.10;93.00;;;;;;4940606;29;20438;-70
2021/09/30 11:57:02;;;;;;;4.57;1.70;;;15.10;92.50;;;;;;4937747;29;20548;-69
2021/09/30 11:59:31;;;;;;;2.60;1.47;;;15.10;92.30;;;;;;4937943;29;20508;-71
2021/09/30 12:02:02;;;;;;;3.57;1.60;;;15.10;92.60;;;;;;4935056;29;20454;-71
2021/09/30 12:04:54;;;;;;;2.50;1.40;;;15.10;92.60;;;;;;4936526;29;20553;-69
2021/09/30 12:07:22;;;;;;;4.33;1.40;;;15.10;90.60;;;;;;4934230;29;20486;-70
2021/09/30 12:09:52;;;;;;;3.43;1.27;;;15.10;89.90;;;;;;4934955;29;20490;-69
2021/09/30 12:12:25;;;;;;;2.60;1.20;;;15.10;90.10;;;;;;4934852;29;20478;-70
2021/09/30 12:14:52;;;;;;;3.37;1.40;;;15.20;90.30;;;;;;4934635;29;20457;-70
2021/09/30 12:17:19;;;;;;;4.10;1.23;;;15.20;89.50;;;;;;4934708;29;20493;-69
2021/09/30 12:19:47;;;;;;;5.50;1.73;;;15.30;88.50;;;;;;4936783;29;20466;-70
2021/09/30 12:22:15;;;;;;;2.60;1.40;;;15.20;87.20;;;;;;4956788;29;20429;-69
2021/09/30 12:25:06;;;;;;;4.60;1.80;;;15.30;88.30;;;;;;4957411;29;20417;-70
2021/09/30 12:27:34;;;;;;;4.03;1.50;;;15.40;89.80;;;;;;4953176;28;20543;-69
2021/09/30 12:30:13;;;;;;;3.23;1.30;;;15.40;88.90;;;;;;5007324;28;21045;-70
2021/09/30 12:32:41;;;;;;;2.63;1.27;;;15.40;86.70;;;;;;5035615;28;20410;-72
2021/09/30 12:35:10;;;;;;;2.90;1.30;;;15.40;87.90;;;;;;5035001;28;20403;-70
2021/09/30 12:37:44;;;;;;;5.40;1.70;;;15.30;87.50;;;;;;5019492;28;20441;-73
2021/09/30 12:40:13;;;;;;;2.33;1.33;;;15.40;88.10;;;;;;5023556;28;20434;-70
2021/09/30 12:42:53;;;;;;;2.13;1.60;;;15.40;87.70;;;;;;5026003;28;20417;-70
2021/09/30 12:45:19;;;;;;;1.57;1.43;;;15.30;89.20;;;;;;5011579;28;20425;-70
2021/09/30 12:47:45;;;;;;;2.60;1.23;;;15.20;90.00;;;;;;4996870;28;21016;-70
2021/09/30 12:50:15;;;;;;;3.10;1.80;;;15.20;90.40;;;;;;4996262;28;20212;-70
2021/09/30 12:52:42;;;;;;;4.57;1.80;;;15.30;90.70;;;;;;4996382;28;20196;-69
2021/09/30 12:55:20;;;;;;;3.97;2.23;;;15.40;91.00;;;;;;4996166;28;20418;-70
2021/09/30 12:57:46;;;;;;;4.57;1.70;;;15.50;91.30;;;;;;4990685;28;20439;-69
2021/09/30 13:00:14;;;;;;;2.13;1.60;;;15.50;91.30;;;;;;4996232;28;20424;-70
2021/09/30 13:02:40;;;;;;;6.17;2.17;;;15.60;91.20;;;;;;4988129;28;20202;-69
2021/09/30 13:05:06;;;;;;;4.20;2.30;;;15.60;91.30;;;;;;4995677;28;20426;-70
2021/09/30 13:07:45;;;;;;;2.87;1.57;;;15.70;91.50;;;;;;4995495;28;20909;-70
2021/09/30 13:10:12;;;;;;;4.53;1.93;;;15.80;91.60;;;;;;4995638;28;20474;-68
2021/09/30 13:12:38;;;;;;;2.80;1.53;;;15.90;91.60;;;;;;4995867;28;20904;-70
2021/09/30 13:15:04;;;;;;;4.57;1.63;;;15.80;91.60;;;;;;4995408;28;20469;-70
2021/09/30 13:17:30;;;;;;;9.33;1.60;;;15.80;91.50;;;;;;4995352;28;20685;-70
2021/09/30 13:20:07;;;;;;;1.87;1.37;;;15.80;91.20;;;;;;4995830;28;20437;-71
2021/09/30 13:22:35;;;;;;;4.47;1.70;;;15.80;91.40;;;;;;4995942;28;20430;-69
2021/09/30 13:25:11;;;;;;;3.17;1.63;;;15.80;91.50;;;;;;4988208;28;20438;-70
2021/09/30 13:27:40;;;;;;;2.20;1.33;;;15.80;91.60;;;;;;4997389;28;20522;-70
2021/09/30 13:30:11;;;;;;;3.73;1.50;;;15.90;91.90;;;;;;4999176;28;20843;-69
2021/09/30 13:32:37;;;;;;;1.60;1.37;;;15.90;91.20;;;;;;4995446;28;20438;-70
2021/09/30 13:35:05;;;;;;;4.40;1.40;;;16.00;90.90;;;;;;4995279;28;20462;-71
2021/09/30 13:37:30;;;;;;;3.13;1.60;;;16.10;89.70;;;;;;4997414;28;20470;-70
2021/09/30 13:39:57;;;;;;;2.93;1.47;;;16.10;89.20;;;;;;5009297;28;20419;-70
2021/09/30 13:42:24;;;;;;;4.20;1.60;;;16.20;90.10;;;;;;4996487;28;20239;-68
2021/09/30 13:44:50;;;;;;;5.57;2.13;;;16.20;89.80;;;;;;4995536;28;20418;-69
2021/09/30 13:47:15;;;;;;;3.30;1.60;;;16.20;89.80;;;;;;4995022;28;20447;-69
2021/09/30 13:49:41;;;;;;;3.07;1.50;;;16.10;89.60;;;;;;4996665;28;20716;-69
2021/09/30 13:52:07;;;;;;;2.63;1.50;;;16.10;90.20;;;;;;5002901;28;20195;-69
2021/09/30 13:54:32;;;;;;;5.93;1.60;;;15.90;90.30;;;;;;5004973;28;20182;-69
2021/09/30 13:56:58;;;;;;;3.63;2.30;;;15.80;90.80;;;;;;4989089;28;20180;-70
2021/09/30 13:59:23;;;;;;;5.37;2.57;;;15.80;90.80;;;;;;4995104;28;20203;-69
2021/09/30 14:01:49;;;;;;;4.27;1.80;;;15.80;91.10;;;;;;4995087;28;20278;-70
2021/09/30 14:04:15;;;;;;;5.53;1.60;;;15.70;91.20;;;;;;4995165;28;20180;-69
2021/09/30 14:06:40;;;;;;;3.23;1.10;;;15.60;91.10;;;;;;4994772;28;20425;-69
2021/09/30 14:09:06;;;;;;;6.53;1.80;;;15.60;91.20;;;;;;4995483;28;20244;-69
2021/09/30 14:11:32;;;;;;;3.73;1.50;;;15.50;91.30;;;;;;5011784;28;20171;-69
2021/09/30 14:13:57;;;;;;;4.80;1.87;;;15.60;91.40;;;;;;4996518;28;20693;-69
2021/09/30 14:16:24;;;;;;;2.93;2.23;;;15.50;91.70;;;;;;4996045;28;20187;-70
2021/09/30 14:18:51;;;;;;;1.60;1.50;;;15.50;91.70;;;;;;4995695;28;20207;-69
2021/09/30 14:21:17;;;;;;;2.93;2.00;;;15.50;91.80;;;;;;5012402;28;20426;-70
2021/09/30 14:23:43;;;;;;;6.20;2.10;;;15.60;91.80;;;;;;5011853;28;20430;-69
2021/09/30 14:26:08;;;;;;;3.30;1.93;;;15.60;91.80;;;;;;4996027;28;20427;-70
2021/09/30 14:28:34;;;;;;;2.47;1.30;;;15.60;91.90;;;;;;4995052;28;20562;-69
2021/09/30 14:31:00;;;;;;;4.20;1.40;;;15.60;92.10;;;;;;5008215;28;20190;-70
2021/09/30 14:33:27;;;;;;;5.50;1.90;;;15.60;92.30;;;;;;5000713;28;20176;-70
2021/09/30 14:35:53;;;;;;;3.50;1.53;;;15.70;92.40;;;;;;5000345;28;20172;-69
2021/09/30 14:38:19;;;;;;;3.10;1.50;;;15.60;92.60;;;;;;5002245;28;20474;-69
2021/09/30 14:40:49;;;;;;;3.33;1.67;;;15.70;92.60;;;;;;4997820;28;20431;-69
2021/09/30 14:43:18;;;;;;;5.10;1.77;;;15.70;92.70;;;;;;4998282;28;20427;-70
2021/09/30 14:45:44;;;;;;;2.73;1.57;;;15.70;92.90;;;;;;4983104;28;20512;-70
2021/09/30 14:48:10;;;;;;;2.43;1.60;;;15.80;93.10;;;;;;5005565;28;20959;-70
2021/09/30 14:50:35;;;;;;;4.83;2.00;;;15.90;93.40;;;;;;5004560;28;20237;-69
2021/09/30 14:53:01;;;;;;;5.77;2.20;;;15.90;93.30;;;;;;4985225;28;20704;-70
2021/09/30 14:55:27;;;;;;;6.70;2.07;;;16.00;93.50;;;;;;5002197;28;20548;-69
2021/09/30 14:57:53;;;;;;;3.43;1.83;;;15.90;93.40;;;;;;4993280;28;20232;-70
2021/09/30 15:00:18;;;;;;;3.00;1.90;;;15.80;93.00;;;;;;4986802;28;20211;-70
2021/09/30 15:02:44;;;;;;;6.30;1.80;;;15.80;93.30;;;;;;4990164;28;20600;-73
2021/09/30 15:05:09;;;;;;;4.10;1.80;;;15.70;93.20;;;;;;4981891;28;20209;-70
2021/09/30 15:07:35;;;;;;;3.70;2.10;;;15.80;93.10;;;;;;4998666;28;20473;-70
2021/09/30 15:10:00;;;;;;;4.60;2.00;;;15.90;93.40;;;;;;4998924;28;20223;-70
2021/09/30 15:12:26;;;;;;;3.43;1.80;;;15.90;93.50;;;;;;4999726;28;20204;-70
2021/09/30 15:14:55;;;;;;;3.23;1.50;;;15.90;93.60;;;;;;4998887;28;20246;-71
2021/09/30 15:17:33;;;;;;;3.70;1.43;;;15.90;93.70;;;;;;4998953;28;20740;-70
2021/09/30 15:23:01;;;;;;;4.20;1.70;;;15.80;94.20;;;;;;4942476;28;20452;-71
2021/09/30 15:25:28;;;;;;;3.37;1.77;;;15.70;94.30;;;;;;4967416;28;20451;-69
2021/09/30 15:27:54;;;;;;;3.60;1.77;;;15.60;94.30;;;;;;4995891;28;20458;-69
2021/09/30 15:30:20;;;;;;;3.45;1.70;;;15.70;94.50;;;;;;5000713;28;20450;-71
2021/09/30 15:32:46;;;;;;;3.00;1.53;;;15.60;94.50;;;;;;4998019;28;20228;-69
2021/09/30 15:35:11;;;;;;;6.23;2.30;;;15.50;94.40;;;;;;4989051;28;20996;-70
2021/09/30 15:37:37;;;;;;;1.83;1.30;;;15.50;94.00;;;;;;4993892;28;20212;-70
2021/09/30 15:40:05;;;;;;;3.00;1.37;;;15.50;93.90;;;;;;4982673;28;20282;-68
2021/09/30 15:42:30;;;;;;;4.20;1.53;;;15.50;93.80;;;;;;4992029;28;20247;-69
2021/09/30 15:44:57;;;;;;;2.57;1.57;;;15.50;93.90;;;;;;4982171;28;20487;-70
2021/09/30 15:47:23;;;;;;;5.27;1.57;;;15.50;93.60;;;;;;4987080;28;20209;-70